Antonia, Louisiana
Current Conditions -  °F | °C
As of 11:53 PM on Thursday 18 Dec 2014 (Local Time) from KESF Reporting Station
Overcast Overcast  
Wind Chill: 11°   Ceiling: 200
Heat Index: 11°   Visibility: 10mi
Dew Point: 10°   Wind: 3mph
Humidity: 93%   Direction: 40°NE
Pressure: 30.14"   Gusts: NA
Location:  31.538°N, 92.3799°W
Report Text: KESF 190553Z AUTO 04003KT 10SM OVC002 11/10 A3014 RMK AO2 SLP206 T01110100 10117 20111 401170089 58004
Loading
Personal Weather Stations






























Interactive Weather Map New forecast layout! Learn more

10-Day Weather Forecast

Advertisements
Track Severe Weather on mobile